Time;durP1;ratioP1;P1;durP2;ratioP2;P2;SDS_P1;SDS_P2;PMS_P1;PMS_P2;Temp;Humidity;BMP_temperature;BMP_pressure;BME280_temperature;BME280_humidity;BME280_pressure;Samples;Min_cycle;Max_cycle;Signal;HPM_P1;HPM_P2
2022/07/26 00:00:50;;;;;;;;;12.00;11.00;;;;;23.33;52.41;100032.66;111419;1258;19376;-86
2022/07/26 00:03:17;;;;;;;;;14.50;12.00;;;;;23.42;52.28;100032.13;112225;1257;19977;-87
2022/07/26 00:06:08;;;;;;;;;12.33;11.33;;;;;23.49;52.02;100034.35;111833;1257;20481;-87
2022/07/26 00:08:35;;;;;;;;;10.33;10.00;;;;;23.46;51.88;100030.30;111539;1257;19883;-88
2022/07/26 00:11:03;;;;;;;;;11.67;11.00;;;;;23.41;51.96;100032.13;111385;1257;19771;-88
2022/07/26 00:13:30;;;;;;;;;15.67;15.00;;;;;23.42;51.94;100023.88;111363;1258;20737;-88
2022/07/26 00:15:58;;;;;;;;;13.33;12.00;;;;;23.28;52.11;100019.73;111334;1257;23298;-89
2022/07/26 00:18:25;;;;;;;;;12.00;12.00;;;;;23.37;51.90;100012.70;111328;1258;19825;-88
2022/07/26 00:20:53;;;;;;;;;11.00;11.00;;;;;23.34;51.79;100003.19;111432;1257;20609;-89
2022/07/26 00:23:20;;;;;;;;;12.00;11.00;;;;;23.42;51.54;100000.86;111380;1257;19504;-89
2022/07/26 00:25:48;;;;;;;;;14.33;10.67;;;;;23.52;51.31;100000.73;111274;1257;19864;-84
2022/07/26 00:28:15;;;;;;;;;12.00;12.00;;;;;23.53;51.15;100003.20;111321;1257;23811;-84
2022/07/26 00:30:43;;;;;;;;;11.00;11.00;;;;;23.42;51.30;100005.30;111349;1257;19229;-84
2022/07/26 00:33:10;;;;;;;;;15.00;12.67;;;;;23.21;51.67;100006.43;111349;1258;20491;-84
2022/07/26 00:35:38;;;;;;;;;15.00;12.00;;;;;23.24;51.87;100006.86;111365;1258;22268;-84
2022/07/26 00:38:05;;;;;;;;;12.00;11.33;;;;;23.24;51.65;100001.55;111298;1258;21567;-84
2022/07/26 00:40:33;;;;;;;;;11.00;11.00;;;;;23.10;51.91;99992.67;111338;1257;21371;-85
2022/07/26 00:43:00;;;;;;;;;15.00;14.00;;;;;23.15;51.87;99987.94;111339;1257;20296;-84
2022/07/26 00:45:27;;;;;;;;;11.00;10.00;;;;;23.17;51.60;99983.73;111349;1257;23522;-84
2022/07/26 00:47:55;;;;;;;;;12.00;11.50;;;;;23.19;51.65;99979.64;111360;1257;21634;-85
2022/07/26 00:50:22;;;;;;;;;12.00;11.00;;;;;23.13;51.57;99976.63;111419;1258;20580;-83
2022/07/26 00:52:50;;;;;;;;;11.67;11.00;;;;;23.26;51.38;99974.80;111337;1257;21932;-79
2022/07/26 00:55:18;;;;;;;;;14.00;14.00;;;;;23.27;51.13;99978.29;111291;1258;19518;-79
2022/07/26 00:57:45;;;;;;;;;14.00;12.00;;;;;23.34;50.97;99981.55;111323;1257;20451;-78
2022/07/26 01:00:13;;;;;;;;;12.67;12.67;;;;;23.43;50.92;99982.52;111321;1257;22203;-78
2022/07/26 01:02:40;;;;;;;;;11.00;11.00;;;;;23.29;50.91;99985.23;111298;1256;19620;-79
2022/07/26 01:05:07;;;;;;;;;11.50;11.00;;;;;23.29;50.88;99985.35;111298;1257;20452;-79
2022/07/26 01:07:35;;;;;;;;;11.00;11.00;;;;;23.35;50.75;99984.59;111300;1258;23539;-79
2022/07/26 01:10:02;;;;;;;;;12.00;12.00;;;;;23.28;50.97;99981.66;111139;1258;21750;-80
2022/07/26 01:12:30;;;;;;;;;15.00;15.00;;;;;23.24;50.94;99980.52;111280;1258;22794;-79
2022/07/26 01:14:57;;;;;;;;;11.00;11.00;;;;;23.20;50.90;99985.45;111294;1257;20228;-79
2022/07/26 01:17:24;;;;;;;;;14.33;11.00;;;;;23.17;51.01;99981.37;111372;1257;21068;-78
2022/07/26 01:19:52;;;;;;;;;11.33;11.33;;;;;23.19;50.90;99980.92;111407;1257;20880;-79
2022/07/26 01:22:19;;;;;;;;;11.50;11.50;;;;;23.34;50.74;99981.77;111382;1257;20812;-78
2022/07/26 01:24:46;;;;;;;;;11.33;11.33;;;;;23.34;50.58;99977.15;111325;1258;19819;-80
2022/07/26 01:27:13;;;;;;;;;15.67;11.67;;;;;23.34;50.65;99978.88;111353;1257;21778;-79
2022/07/26 01:29:41;;;;;;;;;11.67;11.67;;;;;23.40;50.43;99981.59;111424;1258;20068;-79
2022/07/26 01:32:08;;;;;;;;;14.33;12.00;;;;;23.38;50.37;99981.31;111336;1257;19571;-78
2022/07/26 01:34:36;;;;;;;;;13.33;12.00;;;;;23.44;50.27;99985.98;111356;1258;20235;-78
2022/07/26 01:37:04;;;;;;;;;13.50;11.00;;;;;23.24;50.60;99982.42;111270;1257;19413;-78
2022/07/26 01:39:32;;;;;;;;;14.33;14.00;;;;;23.22;50.67;99983.05;111297;1257;20902;-79
2022/07/26 01:41:59;;;;;;;;;12.67;12.67;;;;;23.14;50.70;99985.16;111389;1256;22400;-82
2022/07/26 01:44:26;;;;;;;;;15.67;14.67;;;;;23.16;50.75;99983.69;111330;1258;22836;-79
2022/07/26 01:46:54;;;;;;;;;15.00;13.33;;;;;23.20;50.55;99984.82;111279;1258;29630;-79
2022/07/26 01:49:21;;;;;;;;;12.67;12.00;;;;;23.27;50.31;99979.13;111315;1257;20295;-78
2022/07/26 01:51:48;;;;;;;;;12.00;12.00;;;;;23.19;50.48;99977.25;111342;1258;19249;-79
2022/07/26 01:54:16;;;;;;;;;14.00;12.00;;;;;23.08;50.51;99976.53;111340;1257;19550;-78
2022/07/26 01:56:43;;;;;;;;;14.67;12.00;;;;;22.85;51.13;99973.20;111337;1257;22694;-77
2022/07/26 01:59:10;;;;;;;;;15.00;12.00;;;;;22.96;51.05;99975.27;111342;1258;19858;-78
2022/07/26 02:01:38;;;;;;;;;14.00;12.00;;;;;23.03;50.82;99973.92;111409;1257;19849;-78
2022/07/26 02:04:05;;;;;;;;;14.00;14.00;;;;;23.14;50.48;99972.29;111310;1257;20443;-79
2022/07/26 02:06:32;;;;;;;;;14.00;12.00;;;;;23.02;50.60;99968.48;111009;1258;24659;-78
2022/07/26 02:08:59;;;;;;;;;12.00;12.00;;;;;22.88;50.92;99962.80;111365;1257;23801;-78
2022/07/26 02:11:27;;;;;;;;;12.00;12.00;;;;;22.94;50.91;99958.84;111303;1258;20293;-78
2022/07/26 02:13:54;;;;;;;;;13.33;12.00;;;;;22.95;50.72;99953.92;111307;1258;19365;-78
2022/07/26 02:16:22;;;;;;;;;13.33;12.00;;;;;23.04;50.51;99960.94;111307;1257;19557;-78
2022/07/26 02:18:49;;;;;;;;;12.00;12.00;;;;;22.99;50.60;99962.62;111326;1258;20356;-78
2022/07/26 02:21:16;;;;;;;;;12.00;12.00;;;;;22.96;50.59;99958.79;111363;1257;23700;-79
2022/07/26 02:23:44;;;;;;;;;13.33;13.33;;;;;23.09;50.45;99963.71;111336;1258;19389;-78
2022/07/26 02:26:11;;;;;;;;;10.33;10.00;;;;;23.15;50.35;99971.83;111322;1258;20412;-78
2022/07/26 02:28:39;;;;;;;;;15.00;13.67;;;;;23.27;50.22;99979.98;111284;1257;22373;-81
2022/07/26 02:31:06;;;;;;;;;12.00;12.00;;;;;23.38;49.78;99984.72;111345;1258;23003;-79
2022/07/26 02:33:33;;;;;;;;;11.33;11.33;;;;;23.17;50.34;99980.91;111323;1258;20285;-79
2022/07/26 02:36:01;;;;;;;;;15.00;14.00;;;;;23.10;50.38;99973.67;111355;1257;19310;-79
2022/07/26 02:38:28;;;;;;;;;14.00;14.00;;;;;23.06;50.49;99973.17;111328;1257;21881;-77
2022/07/26 02:40:55;;;;;;;;;11.67;11.67;;;;;22.96;50.81;99964.52;111290;1257;20315;-79
2022/07/26 02:43:23;;;;;;;;;12.67;12.67;;;;;22.87;51.21;99963.11;111313;1258;23192;-78
2022/07/26 02:45:50;;;;;;;;;12.00;12.00;;;;;22.83;51.43;99951.88;111247;1258;19596;-78
2022/07/26 02:48:17;;;;;;;;;12.00;12.00;;;;;22.90;51.44;99950.98;111364;1257;20325;-79
2022/07/26 02:50:45;;;;;;;;;14.00;12.67;;;;;22.83;51.67;99956.33;111334;1257;21743;-78
2022/07/26 02:53:12;;;;;;;;;11.00;11.00;;;;;23.02;51.01;99961.73;111336;1257;20224;-78
2022/07/26 02:55:39;;;;;;;;;12.00;12.00;;;;;22.86;51.14;99967.89;111307;1258;20430;-77
2022/07/26 02:58:07;;;;;;;;;15.67;14.00;;;;;22.87;51.31;99965.77;111307;1257;19763;-80
2022/07/26 03:00:34;;;;;;;;;15.00;14.00;;;;;22.85;51.28;99965.52;111307;1257;21123;-78
2022/07/26 03:03:01;;;;;;;;;12.67;11.33;;;;;23.05;50.93;99979.77;111428;1258;23507;-79
2022/07/26 03:05:29;;;;;;;;;15.00;12.00;;;;;23.34;50.37;100035.03;111349;1257;28480;-81
2022/07/26 03:07:56;;;;;;;;;15.00;14.00;;;;;23.21;50.66;100053.13;111334;1258;19510;-79
2022/07/26 03:10:23;;;;;;;;;11.67;11.67;;;;;22.69;51.60;100014.52;111307;1258;20231;-81
2022/07/26 03:12:51;;;;;;;;;16.00;14.00;;;;;22.94;51.36;100026.94;111329;1257;19191;-79
2022/07/26 03:15:18;;;;;;;;;11.67;11.67;;;;;22.92;51.38;100023.95;111324;1258;19659;-78
2022/07/26 03:17:45;;;;;;;;;15.33;14.67;;;;;22.98;51.52;100026.73;111312;1257;20446;-79
2022/07/26 03:20:13;;;;;;;;;14.00;13.00;;;;;22.83;52.12;100020.56;111315;1258;19691;-77
2022/07/26 03:22:40;;;;;;;;;11.33;11.00;;;;;22.82;52.15;100008.52;111318;1257;19558;-79
2022/07/26 03:25:07;;;;;;;;;12.00;12.00;;;;;22.67;52.38;100001.02;111292;1257;20377;-80
2022/07/26 03:27:34;;;;;;;;;16.67;15.00;;;;;22.57;52.56;99997.13;111283;1258;19265;-78
2022/07/26 03:30:02;;;;;;;;;15.00;14.33;;;;;22.59;52.21;99998.82;111356;1257;20419;-77
2022/07/26 03:32:29;;;;;;;;;15.33;14.00;;;;;22.45;52.74;99988.98;111224;1257;22302;-79
2022/07/26 03:34:56;;;;;;;;;16.00;15.00;;;;;22.55;52.42;99978.35;111297;1258;19079;-79
2022/07/26 03:37:24;;;;;;;;;15.00;15.00;;;;;22.56;52.63;99968.69;111134;1257;20210;-79
2022/07/26 03:39:51;;;;;;;;;18.00;15.67;;;;;22.77;52.25;99965.73;111299;1257;20223;-78
2022/07/26 03:42:19;;;;;;;;;14.67;14.67;;;;;22.68;52.46;99968.58;111338;1257;19436;-79
2022/07/26 03:44:46;;;;;;;;;16.00;16.00;;;;;22.76;52.41;99976.96;111375;1258;19659;-80
2022/07/26 03:47:13;;;;;;;;;15.00;14.00;;;;;22.56;52.98;99973.40;111326;1258;20308;-79
2022/07/26 03:49:41;;;;;;;;;15.00;14.33;;;;;22.81;52.36;99988.98;111284;1257;22845;-78
2022/07/26 03:52:09;;;;;;;;;16.00;16.00;;;;;22.63;52.79;99988.27;111329;1257;19573;-79
2022/07/26 03:54:37;;;;;;;;;16.33;15.33;;;;;22.64;52.82;99997.70;111266;1258;20277;-79
2022/07/26 03:57:04;;;;;;;;;14.00;14.00;;;;;22.71;52.46;99989.63;111363;1258;21062;-78
2022/07/26 03:59:32;;;;;;;;;16.00;15.33;;;;;22.76;52.58;99990.02;111297;1258;19522;-79
2022/07/26 04:01:59;;;;;;;;;15.00;14.33;;;;;22.81;52.50;99999.61;111289;1258;25218;-79
2022/07/26 04:04:26;;;;;;;;;15.67;15.33;;;;;22.78;52.93;99999.48;111146;1258;27933;-79
2022/07/26 04:06:55;;;;;;;;;15.33;14.33;;;;;22.60;52.84;100009.48;111112;1258;20944;-80
2022/07/26 04:09:22;;;;;;;;;15.00;15.00;;;;;22.51;52.99;100013.76;111315;1258;23012;-80
2022/07/26 04:11:50;;;;;;;;;17.00;16.67;;;;;22.57;53.04;100025.71;111384;1257;22597;-78
2022/07/26 04:14:17;;;;;;;;;14.67;14.67;;;;;22.67;52.62;100019.84;111373;1257;19887;-78
2022/07/26 04:16:44;;;;;;;;;20.67;19.00;;;;;22.69;52.54;100008.98;111344;1258;21567;-78
2022/07/26 04:19:12;;;;;;;;;15.00;15.00;;;;;22.69;52.64;100014.73;111293;1257;19754;-78
2022/07/26 04:21:39;;;;;;;;;17.67;17.00;;;;;22.47;53.15;100020.59;111335;1258;19494;-78
2022/07/26 04:24:06;;;;;;;;;16.50;16.50;;;;;22.48;53.31;100027.27;111355;1257;20153;-80
2022/07/26 04:26:33;;;;;;;;;16.50;16.50;;;;;22.53;53.41;100023.19;111325;1258;19182;-79
2022/07/26 04:29:01;;;;;;;;;20.00;19.67;;;;;22.49;53.52;100025.43;111317;1257;19913;-79
2022/07/26 04:31:28;;;;;;;;;18.00;18.00;;;;;22.46;53.62;100027.82;111275;1257;20369;-78
2022/07/26 04:33:55;;;;;;;;;16.00;14.00;;;;;22.55;53.49;100026.55;111338;1258;19262;-79
2022/07/26 04:36:23;;;;;;;;;14.00;14.00;;;;;22.49;53.49;100026.44;111342;1257;21958;-78
2022/07/26 04:38:50;;;;;;;;;16.00;16.00;;;;;22.49;53.56;100030.98;111316;1257;20208;-78
2022/07/26 04:41:17;;;;;;;;;14.33;14.00;;;;;22.52;53.66;100037.37;111304;1258;21951;-78
2022/07/26 04:43:45;;;;;;;;;14.33;13.33;;;;;22.49;53.77;100037.75;111326;1257;19544;-78
2022/07/26 04:46:12;;;;;;;;;21.00;21.00;;;;;22.48;53.77;100032.10;111342;1258;20350;-78
2022/07/26 04:48:39;;;;;;;;;13.00;13.00;;;;;22.43;53.83;100028.90;111339;1257;19260;-80
2022/07/26 04:51:07;;;;;;;;;15.67;15.00;;;;;22.52;53.82;100029.77;111327;1258;19385;-79
2022/07/26 04:53:34;;;;;;;;;16.50;15.00;;;;;22.68;53.45;100036.82;111294;1257;21857;-80
2022/07/26 04:56:01;;;;;;;;;16.00;16.00;;;;;22.70;53.32;100045.53;111314;1257;20428;-80
2022/07/26 04:58:28;;;;;;;;;24.33;22.67;;;;;22.62;53.48;100068.15;111273;1257;19917;-80
2022/07/26 05:00:56;;;;;;;;;21.33;19.67;;;;;22.56;53.98;100092.34;111259;1258;22353;-80
2022/07/26 05:03:23;;;;;;;;;19.00;18.00;;;;;22.68;54.14;100102.38;111308;1257;22970;-79
2022/07/26 05:05:51;;;;;;;;;22.67;20.33;;;;;22.92;53.50;100110.35;111386;1258;20992;-80
2022/07/26 05:08:18;;;;;;;;;15.33;12.67;;;;;22.89;53.70;100126.23;111354;1257;21608;-79
2022/07/26 05:10:45;;;;;;;;;19.00;18.67;;;;;22.88;53.98;100126.89;111406;1258;20821;-78
2022/07/26 05:13:13;;;;;;;;;15.33;15.33;;;;;22.95;54.01;100138.53;111303;1257;19549;-79
2022/07/26 05:15:40;;;;;;;;;18.33;18.33;;;;;23.08;53.79;100138.69;111355;1257;20321;-76
2022/07/26 05:18:07;;;;;;;;;15.67;15.67;;;;;23.08;53.75;100140.23;111390;1258;19237;-81
2022/07/26 05:20:34;;;;;;;;;19.00;16.00;;;;;23.01;54.16;100143.85;111369;1257;23174;-79
2022/07/26 05:23:02;;;;;;;;;16.33;16.33;;;;;23.08;54.26;100151.84;111354;1257;23065;-77
2022/07/26 05:25:29;;;;;;;;;18.67;18.67;;;;;23.17;54.12;100152.71;111306;1258;22875;-79
2022/07/26 05:27:56;;;;;;;;;18.33;18.00;;;;;22.99;54.40;100158.34;111308;1258;22389;-77
2022/07/26 05:30:24;;;;;;;;;17.67;17.67;;;;;22.88;54.80;100151.61;111341;1258;20375;-77
2022/07/26 05:32:51;;;;;;;;;20.00;19.00;;;;;22.87;54.94;100148.15;111350;1258;23001;-78
2022/07/26 05:35:18;;;;;;;;;19.00;19.00;;;;;22.86;55.32;100143.70;111298;1257;28839;-77
2022/07/26 05:37:46;;;;;;;;;17.33;17.33;;;;;23.11;55.04;100137.02;111136;1258;20791;-78
2022/07/26 05:40:13;;;;;;;;;15.00;15.00;;;;;23.36;54.52;100129.27;111297;1257;20810;-78
2022/07/26 05:42:40;;;;;;;;;19.67;19.00;;;;;23.46;54.76;100119.31;111308;1257;23033;-77
2022/07/26 05:45:07;;;;;;;;;21.00;17.00;;;;;23.54;54.64;100097.30;111349;1258;20518;-81
2022/07/26 05:47:35;;;;;;;;;20.00;19.67;;;;;23.61;54.66;100096.89;111317;1257;20215;-80
2022/07/26 05:50:02;;;;;;;;;19.33;17.00;;;;;23.70;54.79;100096.23;111332;1257;19556;-81
2022/07/26 05:52:30;;;;;;;;;16.33;16.00;;;;;23.75;55.06;100096.09;111321;1257;21746;-81
2022/07/26 05:54:57;;;;;;;;;16.67;15.33;;;;;23.76;55.16;100099.92;111337;1257;19320;-81
2022/07/26 05:57:24;;;;;;;;;24.00;20.67;;;;;23.83;55.54;100097.77;111299;1258;22003;-82
2022/07/26 05:59:51;;;;;;;;;19.33;18.67;;;;;23.76;56.44;100091.27;111328;1258;20365;-83
2022/07/26 06:02:19;;;;;;;;;17.33;17.00;;;;;23.75;57.01;100089.33;111311;1258;19135;-80
2022/07/26 06:04:46;;;;;;;;;24.00;20.00;;;;;23.87;56.59;100110.31;111253;1258;19724;-81
2022/07/26 06:07:14;;;;;;;;;23.00;20.00;;;;;23.95;57.12;100114.63;111342;1257;21643;-81
2022/07/26 06:09:41;;;;;;;;;20.33;17.67;;;;;23.90;58.29;100112.37;111291;1257;19730;-84
2022/07/26 06:12:08;;;;;;;;;17.00;17.00;;;;;23.87;58.88;100119.63;111278;1258;19634;-86
2022/07/26 06:14:35;;;;;;;;;17.00;17.00;;;;;23.95;59.34;100125.88;111266;1258;21991;-83
2022/07/26 06:17:04;;;;;;;;;21.67;20.00;;;;;24.02;59.43;100139.09;111274;1258;23609;-80
2022/07/26 06:19:31;;;;;;;;;20.00;19.67;;;;;24.06;59.54;100141.99;111299;1257;19888;-81
2022/07/26 06:21:59;;;;;;;;;20.00;19.33;;;;;24.05;60.12;100120.34;111266;1257;20356;-81
2022/07/26 06:24:26;;;;;;;;;22.33;21.00;;;;;24.00;61.30;100117.91;111324;1258;22458;-81
2022/07/26 06:26:54;;;;;;;;;23.00;22.00;;;;;23.96;62.02;100114.42;111352;1258;22642;-86
2022/07/26 06:29:21;;;;;;;;;21.33;21.33;;;;;23.94;62.36;100105.23;111343;1258;21712;-84
2022/07/26 06:31:49;;;;;;;;;21.33;21.00;;;;;23.93;62.53;100117.71;111284;1257;19396;-84
2022/07/26 06:34:16;;;;;;;;;21.33;20.67;;;;;23.89;63.08;100127.69;111246;1257;21317;-84
2022/07/26 06:36:43;;;;;;;;;22.00;21.00;;;;;23.91;63.27;100145.14;111318;1258;20304;-84
2022/07/26 06:39:11;;;;;;;;;25.33;23.33;;;;;23.92;63.39;100155.80;111283;1257;19392;-83
2022/07/26 06:41:38;;;;;;;;;28.50;23.00;;;;;23.93;63.70;100173.77;111341;1257;19612;-84
2022/07/26 06:44:05;;;;;;;;;27.33;24.67;;;;;23.95;63.83;100162.92;111349;1258;20366;-85
2022/07/26 06:46:33;;;;;;;;;26.67;26.67;;;;;23.95;64.16;100149.88;111372;1258;19319;-83
2022/07/26 06:49:00;;;;;;;;;23.50;23.50;;;;;23.95;64.36;100159.64;111098;1259;21938;-83
2022/07/26 06:51:28;;;;;;;;;30.50;26.50;;;;;23.95;64.61;100177.38;111230;1259;20134;-82
2022/07/26 06:53:55;;;;;;;;;28.00;26.33;;;;;23.99;64.63;100191.82;111394;1258;19346;-84
2022/07/26 06:56:23;;;;;;;;;32.50;29.00;;;;;24.02;64.63;100197.13;111252;1258;22626;-83
2022/07/26 06:58:50;;;;;;;;;32.67;28.33;;;;;24.01;65.04;100196.87;111171;1258;23741;-83
2022/07/26 07:01:18;;;;;;;;;29.67;28.00;;;;;23.98;65.88;100198.98;111334;1257;19544;-83
2022/07/26 07:03:46;;;;;;;;;27.67;25.00;;;;;23.99;66.03;100193.38;111334;1257;19568;-83
2022/07/26 07:06:13;;;;;;;;;29.00;26.50;;;;;23.98;66.17;100199.62;111332;1258;22324;-83
2022/07/26 07:08:41;;;;;;;;;29.00;26.67;;;;;23.97;66.60;100202.77;111432;1258;19099;-83
2022/07/26 07:11:08;;;;;;;;;26.50;23.00;;;;;24.04;66.19;100193.76;111336;1257;19623;-84
2022/07/26 07:13:35;;;;;;;;;28.00;25.00;;;;;24.13;65.59;100186.92;111281;1258;20743;-85
2022/07/26 07:16:03;;;;;;;;;30.33;26.67;;;;;24.20;65.28;100182.70;111250;1258;21766;-82
2022/07/26 07:18:31;;;;;;;;;27.67;25.67;;;;;24.30;65.12;100181.30;111332;1258;22437;-82
2022/07/26 07:20:58;;;;;;;;;28.00;26.67;;;;;24.43;66.05;100189.35;111372;1258;21685;-81
2022/07/26 07:23:25;;;;;;;;;31.00;29.00;;;;;24.54;65.75;100193.52;111332;1257;19564;-80
2022/07/26 07:25:53;;;;;;;;;31.33;29.67;;;;;24.50;66.07;100206.82;111354;1258;22913;-80
2022/07/26 07:28:20;;;;;;;;;34.00;32.00;;;;;24.37;66.65;100222.60;111367;1258;20291;-81
2022/07/26 07:30:47;;;;;;;;;29.00;28.00;;;;;24.20;67.89;100226.31;111329;1257;19293;-80
2022/07/26 07:33:16;;;;;;;;;30.33;27.00;;;;;24.09;69.04;100224.00;111325;1258;23161;-83
2022/07/26 07:35:43;;;;;;;;;28.33;26.33;;;;;24.04;69.48;100221.35;111302;1257;23943;-80
2022/07/26 07:38:11;;;;;;;;;23.67;23.00;;;;;24.02;69.35;100227.32;111345;1258;19346;-79
2022/07/26 07:40:38;;;;;;;;;29.00;27.00;;;;;24.00;69.54;100245.31;111039;1258;341747;-81
2022/07/26 07:43:05;;;;;;;;;29.00;26.67;;;;;23.98;69.91;100248.88;111321;1257;20672;-80
2022/07/26 07:45:33;;;;;;;;;30.00;27.33;;;;;23.83;70.57;100246.73;111380;1258;19927;-80
2022/07/26 07:48:00;;;;;;;;;32.67;29.00;;;;;23.75;71.39;100245.08;111351;1258;19548;-80
2022/07/26 07:50:27;;;;;;;;;26.00;25.67;;;;;23.84;70.85;100234.83;111343;1257;21681;-80
2022/07/26 07:52:55;;;;;;;;;31.00;28.67;;;;;23.86;70.75;100226.77;111314;1258;19300;-83
2022/07/26 07:55:22;;;;;;;;;33.33;30.67;;;;;23.85;70.89;100230.35;111286;1258;20376;-81
2022/07/26 07:57:50;;;;;;;;;27.50;26.50;;;;;23.93;71.10;100237.17;111283;1257;21010;-80
2022/07/26 08:00:18;;;;;;;;;30.67;27.67;;;;;23.95;71.01;100246.70;111369;1258;20529;-78
2022/07/26 08:02:45;;;;;;;;;29.50;26.00;;;;;23.92;71.15;100254.27;111308;1257;19641;-79
2022/07/26 08:05:12;;;;;;;;;26.67;25.00;;;;;23.89;70.93;100248.67;111308;1257;20511;-79
2022/07/26 08:07:40;;;;;;;;;22.00;22.00;;;;;23.79;70.91;100248.44;111268;1258;19333;-81
2022/07/26 08:10:07;;;;;;;;;22.00;21.00;;;;;23.76;70.65;100241.20;111218;1258;19598;-79
2022/07/26 08:12:34;;;;;;;;;22.00;21.00;;;;;23.72;70.25;100229.33;111278;1258;20505;-79
2022/07/26 08:15:02;;;;;;;;;17.00;17.00;;;;;23.69;69.86;100223.27;111320;1258;24533;-78
2022/07/26 08:17:30;;;;;;;;;20.33;17.00;;;;;23.71;69.70;100231.23;111249;1256;19519;-79
2022/07/26 08:19:58;;;;;;;;;22.00;20.00;;;;;23.76;69.69;100248.41;111318;1255;20930;-79
2022/07/26 08:22:25;;;;;;;;;18.67;17.67;;;;;23.82;69.81;100254.39;111768;1257;19312;-79
2022/07/26 08:24:53;;;;;;;;;16.00;15.00;;;;;23.82;69.58;100250.52;111171;1257;19727;-78
2022/07/26 08:27:20;;;;;;;;;17.00;16.33;;;;;23.86;69.40;100259.36;111310;1258;20552;-80
2022/07/26 08:29:47;;;;;;;;;17.67;17.67;;;;;23.91;69.12;100266.70;111237;1258;23002;-78
2022/07/26 08:32:15;;;;;;;;;16.00;16.00;;;;;23.91;68.59;100269.94;111280;1255;23500;-80
2022/07/26 08:34:42;;;;;;;;;15.00;15.00;;;;;23.92;68.29;100274.33;111272;1256;23148;-82
2022/07/26 08:37:09;;;;;;;;;15.33;14.33;;;;;23.86;68.05;100265.73;111365;1255;20116;-81
2022/07/26 08:39:37;;;;;;;;;16.00;15.67;;;;;23.78;68.23;100268.82;111132;1255;21082;-81
2022/07/26 08:42:04;;;;;;;;;16.00;14.33;;;;;23.73;68.55;100277.98;111279;1255;23706;-78
2022/07/26 08:44:31;;;;;;;;;16.00;15.00;;;;;23.72;68.64;100291.97;111358;1255;19156;-80
2022/07/26 08:46:59;;;;;;;;;15.00;13.00;;;;;23.72;68.71;100302.73;111331;1255;19682;-79
2022/07/26 08:49:26;;;;;;;;;10.33;10.33;;;;;23.66;68.65;100310.83;111286;1255;20251;-79
2022/07/26 08:51:55;;;;;;;;;12.00;12.00;;;;;23.68;68.56;100303.29;111384;1258;19243;-79
2022/07/26 08:54:23;;;;;;;;;15.00;14.67;;;;;23.65;68.56;100295.81;111355;1255;21092;-79
2022/07/26 08:56:50;;;;;;;;;13.00;11.67;;;;;23.60;68.78;100301.50;111270;1255;20424;-79
2022/07/26 08:59:18;;;;;;;;;12.33;11.00;;;;;23.42;68.49;100315.33;111313;1255;19266;-82
2022/07/26 09:01:45;;;;;;;;;11.50;11.00;;;;;23.19;68.45;100323.87;111318;1256;22779;-79
2022/07/26 09:04:12;;;;;;;;;11.33;11.33;;;;;23.36;67.89;100318.21;111214;1256;23251;-80
2022/07/26 09:06:40;;;;;;;;;11.00;10.00;;;;;23.45;66.95;100311.44;111224;1256;20022;-80
2022/07/26 09:09:08;;;;;;;;;12.00;12.00;;;;;23.47;66.44;100317.75;111329;1255;22787;-84
2022/07/26 09:11:35;;;;;;;;;11.50;10.50;;;;;23.45;66.07;100320.44;111245;1257;20238;-80
2022/07/26 09:14:02;;;;;;;;;11.00;10.00;;;;;23.39;65.59;100328.36;111308;1258;19618;-78
2022/07/26 09:16:30;;;;;;;;;8.67;8.67;;;;;23.38;65.38;100333.62;111352;1257;19536;-81
2022/07/26 09:18:57;;;;;;;;;10.00;10.00;;;;;23.38;65.32;100337.23;111294;1257;21066;-81
2022/07/26 09:21:24;;;;;;;;;10.33;10.00;;;;;23.47;65.23;100337.53;111347;1258;19242;-80
2022/07/26 09:23:52;;;;;;;;;11.00;10.00;;;;;23.45;65.26;100339.29;111301;1257;19703;-81
2022/07/26 09:26:19;;;;;;;;;11.00;11.00;;;;;23.35;65.52;100348.25;111269;1258;20977;-80
2022/07/26 09:28:49;;;;;;;;;14.67;13.00;;;;;23.19;65.96;100359.77;111281;1257;19296;-83
2022/07/26 09:31:16;;;;;;;;;16.00;13.00;;;;;23.08;66.46;100363.42;111368;1257;22022;-87
2022/07/26 09:33:44;;;;;;;;;15.00;14.00;;;;;23.37;65.62;100361.01;111367;1258;21690;-87
2022/07/26 09:36:11;;;;;;;;;12.00;11.00;;;;;23.53;64.84;100360.58;111354;1257;23103;-85
2022/07/26 09:38:39;;;;;;;;;10.50;10.50;;;;;23.55;64.61;100362.17;111310;1257;19669;-83
2022/07/26 09:41:06;;;;;;;;;11.00;10.67;;;;;23.57;64.62;100362.48;111306;1258;20448;-84
2022/07/26 09:43:34;;;;;;;;;11.00;10.00;;;;;23.57;64.63;100358.06;111289;1257;19372;-84
2022/07/26 09:46:01;;;;;;;;;8.67;8.00;;;;;23.56;64.65;100357.02;111426;1257;21921;-83
2022/07/26 09:48:30;;;;;;;;;9.33;8.33;;;;;23.64;64.63;100358.71;111454;1258;23460;-83
2022/07/26 09:50:57;;;;;;;;;8.00;8.00;;;;;23.72;64.64;100360.05;111518;1258;19335;-84
2022/07/26 09:53:24;;;;;;;;;11.00;10.00;;;;;23.77;64.29;100361.77;111353;1257;21115;-85
2022/07/26 09:55:52;;;;;;;;;12.00;12.00;;;;;23.73;64.42;100368.13;111324;1257;21639;-84
2022/07/26 09:58:19;;;;;;;;;10.33;8.67;;;;;23.57;65.03;100366.88;111333;1257;19220;-84
2022/07/26 10:00:47;;;;;;;;;10.00;10.00;;;;;23.56;65.41;100370.39;111298;1258;19468;-85
2022/07/26 10:03:14;;;;;;;;;9.33;8.00;;;;;23.65;65.26;100375.00;111302;1257;23606;-83
2022/07/26 10:05:42;;;;;;;;;11.00;11.00;;;;;23.71;65.20;100371.70;111211;1258;19356;-84
2022/07/26 10:08:09;;;;;;;;;10.33;10.00;;;;;23.70;65.39;100371.27;111272;1257;20432;-82
2022/07/26 10:10:36;;;;;;;;;12.00;11.50;;;;;23.67;65.50;100378.55;111242;1258;20417;-83
2022/07/26 10:13:04;;;;;;;;;13.00;12.00;;;;;23.71;65.56;100380.83;111262;1258;19485;-84
2022/07/26 10:15:31;;;;;;;;;12.50;12.50;;;;;23.78;65.48;100381.36;111307;1257;21247;-84
2022/07/26 10:17:58;;;;;;;;;12.00;11.33;;;;;23.64;65.96;100379.73;111324;1258;20522;-85
2022/07/26 10:20:25;;;;;;;;;13.33;11.67;;;;;23.56;66.38;100385.83;111353;1258;19264;-86
2022/07/26 10:22:53;;;;;;;;;11.67;11.00;;;;;23.67;66.22;100386.45;111326;1257;21645;-85
2022/07/26 10:25:20;;;;;;;;;16.00;12.33;;;;;23.71;66.24;100387.86;111263;1258;22032;-82
2022/07/26 10:27:48;;;;;;;;;17.33;16.00;;;;;23.71;66.37;100389.25;111282;1258;19264;-83
2022/07/26 10:30:15;;;;;;;;;21.00;20.00;;;;;23.62;66.67;100393.62;111317;1257;19666;-83
2022/07/26 10:32:42;;;;;;;;;19.00;18.00;;;;;23.43;67.22;100404.04;111266;1258;23567;-87
2022/07/26 10:35:10;;;;;;;;;22.67;19.67;;;;;23.38;67.31;100401.71;111277;1258;19285;-84
2022/07/26 10:37:37;;;;;;;;;18.00;16.33;;;;;23.42;67.21;100398.56;111184;1257;19517;-81
2022/07/26 10:40:04;;;;;;;;;16.00;15.00;;;;;23.46;67.38;100398.77;111243;1257;20570;-84
2022/07/26 10:42:34;;;;;;;;;15.33;15.33;;;;;23.59;67.26;100400.84;111290;1258;19167;-81
2022/07/26 10:45:02;;;;;;;;;15.67;14.33;;;;;23.30;67.77;100397.91;111358;1257;23779;-81
2022/07/26 10:47:29;;;;;;;;;43.67;40.00;;;;;23.08;68.25;100401.48;111240;1257;20394;-81
2022/07/26 10:49:56;;;;;;;;;22.67;22.00;;;;;23.03;68.50;100402.04;111271;1257;19399;-83
2022/07/26 10:52:24;;;;;;;;;25.50;22.00;;;;;23.42;67.53;100395.98;111292;1258;19691;-81
2022/07/26 10:54:51;;;;;;;;;25.00;25.00;;;;;23.77;66.37;100392.22;111323;1258;23766;-81
2022/07/26 10:57:18;;;;;;;;;30.33;27.00;;;;;24.03;65.65;100394.02;111362;1258;19434;-82
2022/07/26 10:59:45;;;;;;;;;26.00;22.67;;;;;24.21;64.96;100396.60;111326;1258;20268;-80
2022/07/26 11:02:13;;;;;;;;;27.00;22.67;;;;;24.20;64.71;100399.58;111276;1258;20500;-82
2022/07/26 11:04:40;;;;;;;;;17.00;16.67;;;;;23.91;65.08;100405.07;111295;1258;19333;-77